Time;durP1;ratioP1;P1;durP2;ratioP2;P2;SDS_P1;SDS_P2;PMS_P1;PMS_P2;Temp;Humidity;BMP_temperature;BMP_pressure;BME280_temperature;BME280_humidity;BME280_pressure;Samples;Min_cycle;Max_cycle;Signal;HPM_P1;HPM_P2
2023/04/14 00:00:10;;;;;;;51.80;35.60;;;;;;;;;;4993952;28;21610;-72
2023/04/14 00:02:35;;;;;;;29.52;21.60;;;;;;;;;;4985465;28;20033;-72
2023/04/14 00:05:00;;;;;;;17.58;13.18;;;;;;;;;;4992162;28;20026;-72
2023/04/14 00:07:26;;;;;;;20.08;13.93;;;;;;;;;;4983614;28;20119;-71
2023/04/14 00:09:51;;;;;;;16.25;13.27;;;;;;;;;;4991745;28;20026;-71
2023/04/14 00:12:17;;;;;;;17.40;11.82;;;;;;;;;;4993574;28;20030;-71
2023/04/14 00:14:42;;;;;;;22.27;14.43;;;;;;;;;;4994597;28;20599;-74
2023/04/14 00:17:08;;;;;;;60.83;42.35;;;;;;;;;;4994917;28;20029;-72
2023/04/14 00:19:33;;;;;;;62.10;45.05;;;;;;;;;;4989645;28;20022;-73
2023/04/14 00:21:58;;;;;;;76.93;51.83;;;;;;;;;;4984815;28;20449;-72
2023/04/14 00:24:24;;;;;;;58.08;43.00;;;;;;;;;;4990367;28;20033;-70
2023/04/14 00:26:49;;;;;;;58.92;38.67;;;;;;;;;;4989080;28;20034;-72
2023/04/14 00:29:15;;;;;;;61.00;38.85;;;;;;;;;;4993344;28;20439;-73
2023/04/14 00:31:40;;;;;;;64.20;40.40;;;;;;;;;;5027905;28;20318;-71
2023/04/14 00:34:05;;;;;;;63.97;40.67;;;;;;;;;;4996216;28;20044;-71
2023/04/14 00:36:31;;;;;;;64.28;40.75;;;;;;;;;;4990056;28;20081;-74
2023/04/14 00:38:57;;;;;;;55.25;36.08;;;;;;;;;;4986071;28;20541;-71
2023/04/14 00:41:23;;;;;;;55.35;38.10;;;;;;;;;;4994060;28;20050;-72
2023/04/14 00:43:52;;;;;;;45.25;30.95;;;;;;;;;;4986587;28;20045;-72
2023/04/14 00:46:17;;;;;;;45.08;30.92;;;;;;;;;;4990523;28;20034;-72
2023/04/14 00:48:43;;;;;;;45.10;30.83;;;;;;;;;;4993923;28;20060;-72
2023/04/14 00:51:08;;;;;;;52.15;35.13;;;;;;;;;;4993565;28;20350;-71
2023/04/14 00:53:36;;;;;;;62.95;41.13;;;;;;;;;;4986301;28;20045;-75
2023/04/14 00:56:01;;;;;;;59.90;38.67;;;;;;;;;;4990590;28;20426;-73
2023/04/14 00:58:26;;;;;;;71.05;50.10;;;;;;;;;;4996110;28;20144;-73
2023/04/14 01:00:54;;;;;;;66.50;44.80;;;;;;;;;;4991028;28;20188;-74
2023/04/14 01:03:20;;;;;;;84.15;53.38;;;;;;;;;;4985035;28;20509;-72
2023/04/14 01:05:45;;;;;;;149.70;94.85;;;;;;;;;;4995156;28;20014;-71
2023/04/14 01:08:11;;;;;;;159.18;96.80;;;;;;;;;;4995775;28;20421;-75
2023/04/14 01:10:48;;;;;;;150.43;95.90;;;;;;;;;;4993285;28;20425;-73
2023/04/14 01:13:32;;;;;;;112.78;72.65;;;;;;;;;;4985351;28;20033;-71
2023/04/14 01:16:08;;;;;;;64.40;42.45;;;;;;;;;;4993553;28;20485;-73
2023/04/14 01:18:50;;;;;;;37.58;27.70;;;;;;;;;;4990130;28;20045;-71
2023/04/14 01:21:22;;;;;;;47.97;36.05;;;;;;;;;;4989268;28;20469;-72
2023/04/14 01:23:56;;;;;;;48.65;32.55;;;;;;;;;;4992572;28;20094;-72
2023/04/14 01:26:27;;;;;;;46.65;30.10;;;;;;;;;;4990541;28;20026;-72
2023/04/14 01:29:05;;;;;;;49.90;33.65;;;;;;;;;;4983969;28;20061;-73
2023/04/14 01:31:40;;;;;;;38.50;26.00;;;;;;;;;;4994695;28;20045;-71
2023/04/14 01:34:09;;;;;;;19.65;14.82;;;;;;;;;;4993163;28;20045;-72
2023/04/14 01:36:46;;;;;;;22.83;16.05;;;;;;;;;;4985938;28;20549;-71
2023/04/14 01:39:14;;;;;;;21.45;16.23;;;;;;;;;;4987486;28;20034;-71
2023/04/14 01:41:45;;;;;;;21.70;15.43;;;;;;;;;;4991010;28;20025;-75
2023/04/14 01:44:11;;;;;;;24.35;16.30;;;;;;;;;;5003649;28;20113;-72
2023/04/14 01:46:37;;;;;;;26.33;19.08;;;;;;;;;;4982504;28;20961;-72
2023/04/14 01:49:02;;;;;;;25.80;18.08;;;;;;;;;;4990342;28;20419;-72
2023/04/14 01:51:28;;;;;;;21.38;16.10;;;;;;;;;;4992145;28;20041;-72
2023/04/14 01:53:55;;;;;;;19.15;14.48;;;;;;;;;;4992114;28;20464;-72
2023/04/14 01:56:21;;;;;;;37.70;26.77;;;;;;;;;;4990362;28;20461;-74
2023/04/14 01:58:48;;;;;;;41.72;30.70;;;;;;;;;;4987255;28;20425;-73
2023/04/14 02:01:13;;;;;;;43.70;31.67;;;;;;;;;;4989428;28;20029;-72
2023/04/14 02:03:39;;;;;;;43.67;33.58;;;;;;;;;;4994034;28;20037;-71
2023/04/14 02:06:06;;;;;;;40.08;28.35;;;;;;;;;;4989733;28;20118;-71
2023/04/14 02:08:32;;;;;;;53.55;36.35;;;;;;;;;;4992152;28;20033;-73
2023/04/14 02:10:58;;;;;;;44.97;32.47;;;;;;;;;;4996652;28;20069;-72
2023/04/14 02:13:24;;;;;;;45.65;33.53;;;;;;;;;;4987240;28;20562;-72
2023/04/14 02:15:51;;;;;;;36.97;28.67;;;;;;;;;;4998727;28;20053;-72
2023/04/14 02:18:18;;;;;;;28.55;22.55;;;;;;;;;;4994779;28;20032;-74
2023/04/14 02:20:46;;;;;;;27.13;20.88;;;;;;;;;;4995350;28;20026;-74
2023/04/14 02:23:12;;;;;;;27.43;21.67;;;;;;;;;;5013309;28;20315;-75
2023/04/14 02:25:39;;;;;;;27.95;20.38;;;;;;;;;;4997965;28;20028;-72
2023/04/14 02:28:16;;;;;;;38.75;20.95;;;;;;;;;;4997199;28;20057;-70
2023/04/14 02:30:44;;;;;;;27.58;21.85;;;;;;;;;;4991434;28;20062;-71
2023/04/14 02:33:12;;;;;;;34.33;26.33;;;;;;;;;;4986512;28;20037;-73
2023/04/14 02:35:46;;;;;;;37.00;28.13;;;;;;;;;;4994651;28;20031;-72
2023/04/14 02:38:21;;;;;;;38.53;26.77;;;;;;;;;;4993956;28;20436;-72
2023/04/14 02:40:47;;;;;;;31.25;23.83;;;;;;;;;;4994452;28;20037;-71
2023/04/14 02:43:15;;;;;;;35.33;24.55;;;;;;;;;;4994296;28;20038;-73
2023/04/14 02:45:41;;;;;;;43.72;30.23;;;;;;;;;;4997688;28;20357;-71
2023/04/14 02:48:11;;;;;;;40.92;29.50;;;;;;;;;;4994694;28;20104;-72
2023/04/14 02:50:39;;;;;;;39.85;26.60;;;;;;;;;;4988279;28;20064;-71
2023/04/14 02:53:05;;;;;;;39.28;30.23;;;;;;;;;;4994253;28;20453;-72
2023/04/14 02:55:30;;;;;;;42.75;30.40;;;;;;;;;;4996073;28;20080;-76
2023/04/14 02:57:56;;;;;;;40.97;30.05;;;;;;;;;;4996106;28;20021;-71
2023/04/14 03:00:22;;;;;;;38.60;28.40;;;;;;;;;;4994847;28;20361;-73
2023/04/14 03:02:48;;;;;;;45.45;31.08;;;;;;;;;;5011513;28;20069;-70
2023/04/14 03:05:13;;;;;;;42.65;29.05;;;;;;;;;;4990997;28;20033;-73
2023/04/14 03:07:40;;;;;;;46.45;33.63;;;;;;;;;;4985483;28;20061;-76
2023/04/14 03:10:07;;;;;;;38.33;28.15;;;;;;;;;;4995389;28;20030;-72
2023/04/14 03:12:34;;;;;;;50.22;37.03;;;;;;;;;;5006475;28;20036;-73
2023/04/14 03:15:00;;;;;;;49.30;38.38;;;;;;;;;;4997714;28;20026;-73
2023/04/14 03:17:26;;;;;;;51.10;37.50;;;;;;;;;;4994608;28;20031;-75
2023/04/14 03:19:52;;;;;;;54.78;39.28;;;;;;;;;;4995686;28;20096;-72
2023/04/14 03:22:19;;;;;;;42.60;34.53;;;;;;;;;;4991232;28;20037;-72
2023/04/14 03:24:45;;;;;;;37.72;31.02;;;;;;;;;;4994104;28;20038;-73
2023/04/14 03:27:20;;;;;;;28.25;22.83;;;;;;;;;;4996640;28;20018;-73
2023/04/14 03:29:47;;;;;;;26.67;21.70;;;;;;;;;;4989233;28;20117;-74
2023/04/14 03:32:13;;;;;;;29.15;22.83;;;;;;;;;;4995984;28;20341;-73
2023/04/14 03:34:45;;;;;;;23.02;19.00;;;;;;;;;;4997245;28;20044;-72
2023/04/14 03:37:11;;;;;;;38.35;25.30;;;;;;;;;;4998686;28;20172;-74
2023/04/14 03:39:37;;;;;;;49.80;32.05;;;;;;;;;;4993858;28;20104;-75
2023/04/14 03:42:04;;;;;;;52.72;34.22;;;;;;;;;;4975096;28;20568;-74
2023/04/14 03:44:34;;;;;;;50.45;32.00;;;;;;;;;;4973959;28;20384;-72
2023/04/14 03:47:01;;;;;;;;;;;;;;;;;;4995925;28;20051;-72
2023/04/14 03:49:26;;;;;;;74.40;53.75;;;;;;;;;;4987359;28;19958;-71
2023/04/14 03:51:53;;;;;;;48.88;35.20;;;;;;;;;;4982902;28;20527;-72
2023/04/14 03:54:21;;;;;;;51.08;38.58;;;;;;;;;;4996588;28;20073;-74
2023/04/14 03:56:48;;;;;;;45.53;34.33;;;;;;;;;;4993852;28;20022;-70
2023/04/14 03:59:15;;;;;;;37.28;27.58;;;;;;;;;;4993822;28;20029;-71
2023/04/14 04:01:41;;;;;;;37.08;28.42;;;;;;;;;;4992884;28;22677;-70
2023/04/14 04:04:07;;;;;;;34.90;27.60;;;;;;;;;;4987886;28;20077;-73
2023/04/14 04:06:33;;;;;;;37.22;28.33;;;;;;;;;;4995344;28;20026;-71
2023/04/14 04:09:00;;;;;;;32.70;27.05;;;;;;;;;;4997047;28;20108;-71
2023/04/14 04:11:26;;;;;;;34.50;24.13;;;;;;;;;;4991936;28;20113;-73
2023/04/14 04:13:53;;;;;;;31.55;22.60;;;;;;;;;;4972484;28;20160;-70
2023/04/14 04:16:19;;;;;;;30.83;23.58;;;;;;;;;;4972233;28;20014;-73
2023/04/14 04:18:47;;;;;;;35.08;27.08;;;;;;;;;;4978801;28;20033;-72
2023/04/14 04:21:13;;;;;;;32.42;24.92;;;;;;;;;;4993218;28;20116;-72
2023/04/14 04:23:40;;;;;;;33.10;27.10;;;;;;;;;;4994234;28;20033;-73
2023/04/14 04:26:06;;;;;;;36.03;27.55;;;;;;;;;;4995236;28;20026;-72
2023/04/14 04:28:31;;;;;;;36.58;26.42;;;;;;;;;;4997315;28;20048;-73
2023/04/14 04:30:58;;;;;;;35.30;29.15;;;;;;;;;;4985126;28;20022;-71
2023/04/14 04:33:25;;;;;;;33.83;29.45;;;;;;;;;;4991972;28;20046;-72
2023/04/14 04:35:51;;;;;;;52.58;38.15;;;;;;;;;;4981834;28;20117;-71
2023/04/14 04:38:16;;;;;;;48.97;37.33;;;;;;;;;;4973047;28;20124;-72
2023/04/14 04:40:41;;;;;;;48.13;36.70;;;;;;;;;;4974486;28;20167;-70
2023/04/14 04:43:07;;;;;;;45.38;35.35;;;;;;;;;;4972225;28;20117;-71
2023/04/14 04:45:51;;;;;;;41.20;32.30;;;;;;;;;;4987952;28;20030;-71
2023/04/14 04:48:16;;;;;;;28.00;24.65;;;;;;;;;;4993962;28;20050;-70
2023/04/14 04:50:41;;;;;;;46.70;36.00;;;;;;;;;;4994362;28;20088;-73
2023/04/14 04:53:06;;;;;;;44.15;32.10;;;;;;;;;;4985789;28;20036;-75
2023/04/14 04:55:32;;;;;;;31.23;26.00;;;;;;;;;;4993793;28;21313;-73
2023/04/14 04:57:57;;;;;;;32.85;29.25;;;;;;;;;;4993476;28;20460;-72
2023/04/14 05:00:24;;;;;;;43.08;34.03;;;;;;;;;;4990720;28;20370;-74
2023/04/14 05:02:50;;;;;;;105.75;80.68;;;;;;;;;;4990599;28;20044;-70
2023/04/14 05:05:15;;;;;;;200.55;152.18;;;;;;;;;;4996751;28;20022;-71
2023/04/14 05:07:41;;;;;;;139.20;107.80;;;;;;;;;;4982627;28;20029;-71
2023/04/14 05:10:06;;;;;;;84.25;65.25;;;;;;;;;;4989770;28;20464;-72
2023/04/14 05:12:32;;;;;;;95.93;75.75;;;;;;;;;;4993468;28;20023;-73
2023/04/14 05:14:57;;;;;;;78.18;61.63;;;;;;;;;;4993791;28;20108;-72
2023/04/14 05:17:23;;;;;;;51.38;41.33;;;;;;;;;;4995859;28;20117;-75
2023/04/14 05:19:48;;;;;;;62.78;52.58;;;;;;;;;;4995208;28;20771;-72
2023/04/14 05:22:13;;;;;;;61.40;51.63;;;;;;;;;;4987959;28;20389;-72
2023/04/14 05:24:39;;;;;;;65.95;53.80;;;;;;;;;;4987477;28;20331;-72
2023/04/14 05:27:04;;;;;;;52.42;43.05;;;;;;;;;;4992480;28;20393;-71
2023/04/14 05:29:30;;;;;;;65.97;53.70;;;;;;;;;;4991879;28;20030;-73
2023/04/14 05:31:55;;;;;;;93.90;71.55;;;;;;;;;;4993166;28;20470;-73
2023/04/14 05:34:21;;;;;;;76.78;55.72;;;;;;;;;;4992016;28;20096;-72
2023/04/14 05:36:46;;;;;;;47.22;34.70;;;;;;;;;;4991318;28;20116;-72
2023/04/14 05:39:12;;;;;;;31.52;22.00;;;;;;;;;;4986338;28;20361;-72
2023/04/14 05:41:37;;;;;;;45.17;32.20;;;;;;;;;;4991123;28;20034;-71
2023/04/14 05:44:03;;;;;;;29.25;21.13;;;;;;;;;;4994689;28;20132;-73
2023/04/14 05:46:28;;;;;;;24.23;18.30;;;;;;;;;;4994530;28;20036;-72
2023/04/14 05:48:54;;;;;;;62.10;46.00;;;;;;;;;;4984080;28;20114;-72
2023/04/14 05:51:19;;;;;;;36.60;29.90;;;;;;;;;;4978861;28;20033;-71
2023/04/14 05:53:44;;;;;;;27.92;24.75;;;;;;;;;;4984807;28;20048;-72
2023/04/14 05:56:10;;;;;;;87.50;66.85;;;;;;;;;;4989874;28;20068;-73
2023/04/14 05:58:36;;;;;;;37.17;29.92;;;;;;;;;;4990466;28;20088;-71
2023/04/14 06:01:02;;;;;;;20.90;17.40;;;;;;;;;;4995885;28;20542;-72
2023/04/14 06:03:28;;;;;;;45.55;32.00;;;;;;;;;;4994497;28;20092;-71
2023/04/14 06:05:54;;;;;;;53.30;38.35;;;;;;;;;;4986404;28;20018;-74
2023/04/14 06:08:20;;;;;;;277.38;160.40;;;;;;;;;;4977612;28;20441;-70
2023/04/14 06:10:45;;;;;;;224.75;152.77;;;;;;;;;;4982822;28;20021;-74
2023/04/14 06:13:11;;;;;;;161.05;115.50;;;;;;;;;;4992964;28;20044;-71
2023/04/14 06:15:36;;;;;;;53.97;39.85;;;;;;;;;;4990718;28;20100;-74
2023/04/14 06:18:01;;;;;;;38.72;29.23;;;;;;;;;;4976384;28;20481;-72
2023/04/14 06:20:27;;;;;;;60.83;51.92;;;;;;;;;;4972352;28;20580;-73
2023/04/14 06:22:52;;;;;;;53.58;48.13;;;;;;;;;;4971776;28;20065;-73
2023/04/14 06:25:17;;;;;;;37.05;33.17;;;;;;;;;;4971421;28;20374;-73
2023/04/14 06:27:43;;;;;;;33.28;25.70;;;;;;;;;;4972794;28;20029;-72
2023/04/14 06:30:08;;;;;;;22.33;20.05;;;;;;;;;;4971174;28;20027;-73
2023/04/14 06:32:34;;;;;;;15.40;11.05;;;;;;;;;;4972573;28;20143;-73
2023/04/14 06:35:00;;;;;;;15.73;14.13;;;;;;;;;;4971247;28;20166;-72
2023/04/14 06:37:25;;;;;;;24.30;20.33;;;;;;;;;;4970479;28;20037;-72
2023/04/14 06:39:51;;;;;;;18.38;15.95;;;;;;;;;;4970777;28;20370;-75
2023/04/14 06:42:16;;;;;;;17.77;14.93;;;;;;;;;;4968345;28;20060;-73
2023/04/14 06:44:41;;;;;;;18.52;14.57;;;;;;;;;;4973624;28;20464;-72
2023/04/14 06:47:07;;;;;;;19.73;16.48;;;;;;;;;;4980392;28;20050;-73
2023/04/14 06:49:33;;;;;;;18.27;14.48;;;;;;;;;;4976648;28;20104;-74
2023/04/14 06:51:58;;;;;;;15.60;12.10;;;;;;;;;;4981878;28;20381;-74
2023/04/14 06:54:24;;;;;;;15.02;11.75;;;;;;;;;;4988658;28;20424;-74
2023/04/14 06:56:49;;;;;;;48.83;41.28;;;;;;;;;;4990474;28;20034;-72
2023/04/14 06:59:14;;;;;;;14.40;11.90;;;;;;;;;;4997956;28;20049;-75
2023/04/14 07:01:40;;;;;;;15.15;12.63;;;;;;;;;;4995458;28;20029;-74
2023/04/14 07:04:06;;;;;;;27.85;18.02;;;;;;;;;;4995734;28;20113;-71
2023/04/14 07:06:31;;;;;;;21.27;16.02;;;;;;;;;;4996218;28;20441;-72
2023/04/14 07:08:56;;;;;;;13.40;12.00;;;;;;;;;;4992265;28;20109;-73
2023/04/14 07:11:22;;;;;;;12.80;10.20;;;;;;;;;;4987072;28;20177;-73
2023/04/14 07:13:47;;;;;;;14.15;12.65;;;;;;;;;;4989404;28;20045;-73
2023/04/14 07:16:12;;;;;;;19.65;17.58;;;;;;;;;;4993082;28;20444;-72
2023/04/14 07:18:38;;;;;;;14.35;12.52;;;;;;;;;;4977713;28;20426;-74
2023/04/14 07:21:03;;;;;;;21.25;16.08;;;;;;;;;;4975396;28;20026;-71
2023/04/14 07:23:29;;;;;;;18.15;15.50;;;;;;;;;;4990607;28;20030;-73
2023/04/14 07:25:55;;;;;;;29.70;18.70;;;;;;;;;;4996735;28;20026;-71
2023/04/14 07:28:21;;;;;;;17.35;15.30;;;;;;;;;;4992803;28;20434;-71
2023/04/14 07:30:47;;;;;;;13.88;12.43;;;;;;;;;;4990227;28;20033;-70
2023/04/14 07:33:13;;;;;;;10.93;9.27;;;;;;;;;;4986371;28;20043;-71
2023/04/14 07:35:38;;;;;;;10.52;9.43;;;;;;;;;;4986368;28;20022;-72
2023/04/14 07:38:04;;;;;;;13.45;11.63;;;;;;;;;;4987762;28;20962;-73
2023/04/14 07:40:29;;;;;;;18.60;16.42;;;;;;;;;;4993352;28;20159;-71
2023/04/14 07:42:56;;;;;;;21.95;19.30;;;;;;;;;;4987289;28;20534;-72
2023/04/14 07:45:22;;;;;;;48.90;30.52;;;;;;;;;;4984026;28;20113;-72
2023/04/14 07:47:47;;;;;;;114.00;55.83;;;;;;;;;;4994059;28;20208;-71
2023/04/14 07:50:13;;;;;;;60.58;35.47;;;;;;;;;;4993414;28;20022;-74
2023/04/14 07:52:39;;;;;;;34.15;23.70;;;;;;;;;;4995853;28;20026;-72
2023/04/14 07:55:05;;;;;;;44.25;33.10;;;;;;;;;;4991968;28;20041;-70
2023/04/14 07:57:32;;;;;;;43.05;30.35;;;;;;;;;;4984767;28;20025;-71
2023/04/14 07:59:57;;;;;;;35.47;24.25;;;;;;;;;;4984920;28;20022;-74
2023/04/14 08:02:23;;;;;;;20.67;15.43;;;;;;;;;;4984674;28;20045;-72
2023/04/14 08:04:48;;;;;;;65.00;42.53;;;;;;;;;;4987773;28;20064;-71
2023/04/14 08:07:14;;;;;;;21.65;15.73;;;;;;;;;;4998077;28;20176;-73
2023/04/14 08:09:40;;;;;;;91.47;50.40;;;;;;;;;;4993097;28;20037;-70
2023/04/14 08:12:05;;;;;;;72.93;43.33;;;;;;;;;;4995787;28;20030;-73
2023/04/14 08:14:31;;;;;;;18.02;16.05;;;;;;;;;;4992872;28;20046;-73
2023/04/14 08:16:56;;;;;;;39.72;26.15;;;;;;;;;;4988678;28;20036;-73
2023/04/14 08:19:21;;;;;;;51.72;32.47;;;;;;;;;;4982996;28;20029;-74
2023/04/14 08:21:47;;;;;;;39.33;26.70;;;;;;;;;;4983514;28;20465;-72
2023/04/14 08:24:12;;;;;;;71.97;52.10;;;;;;;;;;4976253;28;20053;-74
2023/04/14 08:26:37;;;;;;;54.35;39.05;;;;;;;;;;4981129;28;20030;-74
2023/04/14 08:29:03;;;;;;;35.08;25.77;;;;;;;;;;4984010;28;20022;-71
2023/04/14 08:31:28;;;;;;;28.77;20.85;;;;;;;;;;4971638;28;20022;-70
2023/04/14 08:33:54;;;;;;;44.80;31.08;;;;;;;;;;4978917;28;20064;-71
2023/04/14 08:36:19;;;;;;;23.90;15.20;;;;;;;;;;4977572;28;21726;-74
2023/04/14 08:38:45;;;;;;;13.90;11.18;;;;;;;;;;4983163;28;20460;-73
2023/04/14 08:41:12;;;;;;;14.55;11.80;;;;;;;;;;4983031;28;20033;-72
2023/04/14 08:43:37;;;;;;;66.40;35.65;;;;;;;;;;4958411;28;20029;-72
2023/04/14 08:46:03;;;;;;;22.73;16.33;;;;;;;;;;4974886;28;20022;-72
2023/04/14 08:48:29;;;;;;;57.20;39.92;;;;;;;;;;4991859;28;20070;-70
2023/04/14 08:51:03;;;;;;;38.10;27.63;;;;;;;;;;4977581;28;20029;-73
2023/04/14 08:53:30;;;;;;;72.45;57.35;;;;;;;;;;4985254;28;20042;-74
2023/04/14 08:55:58;;;;;;;111.05;89.35;;;;;;;;;;4985441;28;20026;-74
2023/04/14 08:58:23;;;;;;;99.88;78.60;;;;;;;;;;4987633;28;20030;-73
2023/04/14 09:00:50;;;;;;;113.13;78.63;;;;;;;;;;4984338;28;20026;-77
2023/04/14 09:03:16;;;;;;;154.57;100.90;;;;;;;;;;4986564;28;20133;-72
2023/04/14 09:05:41;;;;;;;155.60;102.68;;;;;;;;;;4982463;28;20101;-72
2023/04/14 09:08:07;;;;;;;196.10;135.98;;;;;;;;;;4985101;28;20048;-71
2023/04/14 09:10:34;;;;;;;100.25;74.53;;;;;;;;;;4983677;28;20029;-70
2023/04/14 09:13:00;;;;;;;42.72;34.60;;;;;;;;;;4983627;28;20335;-74
2023/04/14 09:15:27;;;;;;;129.40;97.78;;;;;;;;;;4986186;28;20092;-72
2023/04/14 09:17:53;;;;;;;11.70;10.60;;;;;;;;;;4984154;28;20465;-73
2023/04/14 09:20:19;;;;;;;7.82;6.97;;;;;;;;;;4986257;28;20030;-75
2023/04/14 09:22:44;;;;;;;7.55;6.85;;;;;;;;;;4989930;28;20441;-71
2023/04/14 09:25:10;;;;;;;5.55;4.55;;;;;;;;;;4985011;28;20025;-72
2023/04/14 09:27:36;;;;;;;7.90;4.47;;;;;;;;;;4992029;28;20092;-72
2023/04/14 09:30:02;;;;;;;5.43;3.95;;;;;;;;;;4980339;28;20057;-71
2023/04/14 09:32:27;;;;;;;5.50;4.63;;;;;;;;;;4980496;28;20049;-75
2023/04/14 09:34:53;;;;;;;4.50;3.80;;;;;;;;;;4990466;28;20326;-74
2023/04/14 09:37:19;;;;;;;3.67;2.33;;;;;;;;;;4983563;28;20076;-71
2023/04/14 09:39:51;;;;;;;2.42;2.10;;;;;;;;;;4984211;28;20025;-72
2023/04/14 09:42:17;;;;;;;12.65;8.32;;;;;;;;;;4987115;28;20030;-71
2023/04/14 09:44:55;;;;;;;8.02;5.68;;;;;;;;;;4988727;28;20101;-73
2023/04/14 09:47:21;;;;;;;8.45;6.95;;;;;;;;;;4983261;28;20042;-77
2023/04/14 09:49:57;;;;;;;6.53;5.13;;;;;;;;;;4985409;28;20040;-74
2023/04/14 09:52:26;;;;;;;5.28;4.10;;;;;;;;;;4976348;28;20034;-71
2023/04/14 09:54:54;;;;;;;9.02;6.30;;;;;;;;;;4983100;28;20373;-71
2023/04/14 09:57:27;;;;;;;17.05;13.18;;;;;;;;;;4983272;28;20360;-74
2023/04/14 09:59:52;;;;;;;42.55;29.48;;;;;;;;;;4982429;28;20331;-72
2023/04/14 10:02:17;;;;;;;83.47;45.50;;;;;;;;;;4982654;28;20026;-72
2023/04/14 10:04:43;;;;;;;54.15;27.70;;;;;;;;;;4983168;28;20029;-71
2023/04/14 10:07:10;;;;;;;22.52;17.95;;;;;;;;;;4982823;28;20655;-72
2023/04/14 10:09:36;;;;;;;22.60;16.00;;;;;;;;;;4983979;28;20088;-72
2023/04/14 10:12:06;;;;;;;20.63;13.95;;;;;;;;;;4982395;28;20357;-74
2023/04/14 10:14:32;;;;;;;47.97;20.77;;;;;;;;;;4982303;28;20438;-73
2023/04/14 10:16:58;;;;;;;40.85;23.15;;;;;;;;;;4982958;28;20048;-74
2023/04/14 10:19:24;;;;;;;47.10;37.03;;;;;;;;;;4982800;28;20454;-71
2023/04/14 10:21:50;;;;;;;55.28;46.33;;;;;;;;;;4997067;28;20025;-73
2023/04/14 10:24:16;;;;;;;108.55;62.60;;;;;;;;;;4981141;28;20034;-74
2023/04/14 10:26:45;;;;;;;42.92;28.10;;;;;;;;;;4983330;28;20050;-73
2023/04/14 10:29:11;;;;;;;39.38;31.65;;;;;;;;;;4983251;28;20460;-73
2023/04/14 10:31:39;;;;;;;19.13;16.52;;;;;;;;;;4985988;28;20030;-76
2023/04/14 10:34:09;;;;;;;8.20;7.40;;;;;;;;;;4987197;28;20087;-74
2023/04/14 10:36:36;;;;;;;6.00;5.20;;;;;;;;;;4983682;28;20032;-71
2023/04/14 10:39:02;;;;;;;2.92;2.10;;;;;;;;;;4984439;28;20030;-73
2023/04/14 10:41:47;;;;;;;3.30;2.80;;;;;;;;;;4986350;28;20048;-71
2023/04/14 10:44:30;;;;;;;2.70;2.50;;;;;;;;;;4987761;28;20091;-71
2023/04/14 10:46:56;;;;;;;7.07;5.13;;;;;;;;;;4991629;28;20049;-71
2023/04/14 10:49:29;;;;;;;4.78;4.20;;;;;;;;;;4996807;28;20033;-72
2023/04/14 10:51:57;;;;;;;15.30;11.10;;;;;;;;;;4987727;28;20449;-74
2023/04/14 10:54:22;;;;;;;23.10;14.23;;;;;;;;;;4994470;28;20038;-72
2023/04/14 10:57:07;;;;;;;29.83;16.05;;;;;;;;;;4989895;28;20034;-71
2023/04/14 10:59:32;;;;;;;39.47;25.85;;;;;;;;;;4991403;28;20446;-74
2023/04/14 11:01:57;;;;;;;24.70;20.98;;;;;;;;;;5000021;28;20017;-74
2023/04/14 11:04:23;;;;;;;10.93;8.52;;;;;;;;;;4986378;28;20128;-71
2023/04/14 11:06:53;;;;;;;5.10;4.60;;;;;;;;;;4981459;28;20141;-72
2023/04/14 11:09:22;;;;;;;10.38;9.25;;;;;;;;;;4972163;28;20365;-72
2023/04/14 11:11:47;;;;;;;4.85;4.13;;;;;;;;;;4974864;28;20029;-72
2023/04/14 11:14:13;;;;;;;6.70;6.03;;;;;;;;;;4977547;28;20458;-71
2023/04/14 11:16:38;;;;;;;10.63;8.50;;;;;;;;;;4982896;28;20038;-72
2023/04/14 11:19:12;;;;;;;20.30;15.20;;;;;;;;;;4976126;28;20029;-71
2023/04/14 11:21:47;;;;;;;4.68;4.20;;;;;;;;;;4974315;28;20542;-73
2023/04/14 11:24:12;;;;;;;7.43;6.75;;;;;;;;;;4979824;28;20480;-71
2023/04/14 11:26:39;;;;;;;13.20;11.80;;;;;;;;;;4986722;28;20065;-73
2023/04/14 11:29:08;;;;;;;9.20;8.30;;;;;;;;;;4971318;28;20445;-71
2023/04/14 11:31:33;;;;;;;8.73;7.82;;;;;;;;;;4981684;28;20350;-70
2023/04/14 11:34:02;;;;;;;13.30;10.52;;;;;;;;;;4985868;28;20427;-70
2023/04/14 11:36:28;;;;;;;7.30;6.55;;;;;;;;;;4982849;28;20034;-73
2023/04/14 11:38:54;;;;;;;12.85;10.57;;;;;;;;;;4976174;28;20036;-73
2023/04/14 11:41:20;;;;;;;6.70;5.53;;;;;;;;;;4986562;28;20030;-71
2023/04/14 11:43:47;;;;;;;3.58;3.28;;;;;;;;;;4978251;28;20081;-71
2023/04/14 11:46:13;;;;;;;3.20;2.92;;;;;;;;;;4990991;28;20036;-73
2023/04/14 11:48:38;;;;;;;12.32;6.38;;;;;;;;;;4982451;28;20042;-71
2023/04/14 11:51:04;;;;;;;5.28;4.78;;;;;;;;;;4973766;28;20054;-70
2023/04/14 11:53:30;;;;;;;6.22;5.18;;;;;;;;;;4981135;28;20083;-71
2023/04/14 11:55:59;;;;;;;2.67;2.45;;;;;;;;;;4991773;28;20057;-71
2023/04/14 11:58:26;;;;;;;7.40;5.32;;;;;;;;;;4985740;28;20064;-70
2023/04/14 12:00:52;;;;;;;6.78;2.83;;;;;;;;;;4978186;28;20018;-76
2023/04/14 12:03:17;;;;;;;9.68;6.07;;;;;;;;;;4972924;28;20033;-72
2023/04/14 12:05:43;;;;;;;3.30;2.67;;;;;;;;;;5000713;28;20037;-73
2023/04/14 12:08:08;;;;;;;2.17;1.40;;;;;;;;;;4989706;28;20445;-73
2023/04/14 12:10:35;;;;;;;5.95;3.53;;;;;;;;;;4980979;28;20026;-73
2023/04/14 12:13:07;;;;;;;4.78;2.85;;;;;;;;;;4982465;28;20087;-73
2023/04/14 12:15:35;;;;;;;2.08;1.13;;;;;;;;;;4991078;28;20109;-74
2023/04/14 12:18:01;;;;;;;9.07;1.52;;;;;;;;;;4992035;28;20472;-74
2023/04/14 12:20:29;;;;;;;1.52;1.02;;;;;;;;;;4995077;28;20125;-73
2023/04/14 12:23:03;;;;;;;2.08;1.45;;;;;;;;;;4994491;28;20030;-74
2023/04/14 12:25:31;;;;;;;5.50;2.70;;;;;;;;;;4989826;28;20018;-74
2023/04/14 12:27:57;;;;;;;3.40;3.03;;;;;;;;;;4991635;28;20021;-73
2023/04/14 12:30:24;;;;;;;2.55;1.20;;;;;;;;;;4985991;28;20519;-75
2023/04/14 12:32:49;;;;;;;2.10;1.35;;;;;;;;;;4991833;28;20030;-75
2023/04/14 12:35:14;;;;;;;6.57;4.88;;;;;;;;;;4991671;28;20345;-74
2023/04/14 12:37:46;;;;;;;4.82;2.20;;;;;;;;;;4992952;28;20353;-75
2023/04/14 12:40:11;;;;;;;8.57;3.30;;;;;;;;;;4995180;28;20121;-76
2023/04/14 12:42:47;;;;;;;3.13;2.25;;;;;;;;;;4992613;28;20486;-74
2023/04/14 12:45:12;;;;;;;3.97;2.40;;;;;;;;;;4993462;28;20018;-74
2023/04/14 12:47:38;;;;;;;7.90;5.32;;;;;;;;;;4995101;28;20045;-74
2023/04/14 12:50:22;;;;;;;8.10;4.72;;;;;;;;;;4996378;28;20097;-77
2023/04/14 12:52:47;;;;;;;5.65;4.30;;;;;;;;;;4988839;28;20415;-75
2023/04/14 12:55:21;;;;;;;3.22;2.38;;;;;;;;;;4990181;28;20038;-75
2023/04/14 12:57:46;;;;;;;2.90;1.75;;;;;;;;;;4994039;28;20049;-73
2023/04/14 13:00:12;;;;;;;3.15;2.05;;;;;;;;;;4991676;28;20388;-73
2023/04/14 13:02:37;;;;;;;2.88;1.40;;;;;;;;;;4989512;28;20061;-75
2023/04/14 13:05:03;;;;;;;4.25;3.40;;;;;;;;;;4994208;28;20034;-74
2023/04/14 13:07:29;;;;;;;3.60;1.90;;;;;;;;;;4993058;28;20026;-75
2023/04/14 13:09:55;;;;;;;3.55;2.40;;;;;;;;;;4993386;28;20029;-74
2023/04/14 13:12:21;;;;;;;2.67;1.70;;;;;;;;;;4994941;28;20045;-74
2023/04/14 13:14:46;;;;;;;2.58;1.80;;;;;;;;;;4992923;28;20442;-73
2023/04/14 13:17:11;;;;;;;3.85;1.92;;;;;;;;;;4993358;28;20030;-74
2023/04/14 13:19:37;;;;;;;4.63;2.65;;;;;;;;;;4994944;28;20469;-76
2023/04/14 13:22:02;;;;;;;6.80;1.83;;;;;;;;;;4993470;28;21218;-75
2023/04/14 13:24:27;;;;;;;7.47;2.80;;;;;;;;;;4994528;28;20033;-77
2023/04/14 13:26:53;;;;;;;2.28;1.25;;;;;;;;;;4994551;28;20034;-74
2023/04/14 13:29:18;;;;;;;5.53;3.30;;;;;;;;;;4987825;28;20025;-74
2023/04/14 13:31:43;;;;;;;5.25;2.55;;;;;;;;;;4989037;28;20043;-74
2023/04/14 13:34:10;;;;;;;3.95;1.90;;;;;;;;;;4992795;28;20115;-74
2023/04/14 13:36:35;;;;;;;4.22;1.65;;;;;;;;;;5008213;28;20033;-75
2023/04/14 13:39:02;;;;;;;3.00;1.77;;;;;;;;;;4994591;28;20534;-74
2023/04/14 13:41:27;;;;;;;2.55;1.55;;;;;;;;;;4996627;28;20034;-75
2023/04/14 13:43:53;;;;;;;5.20;2.50;;;;;;;;;;4993361;28;20034;-75
2023/04/14 13:46:18;;;;;;;5.05;3.88;;;;;;;;;;4989127;28;20326;-73
2023/04/14 13:48:43;;;;;;;5.15;2.40;;;;;;;;;;4993269;28;20049;-74
2023/04/14 13:51:09;;;;;;;4.95;3.90;;;;;;;;;;4989904;28;20030;-74
2023/04/14 13:53:35;;;;;;;3.05;1.80;;;;;;;;;;4993917;28;20453;-73
2023/04/14 13:56:01;;;;;;;4.53;2.55;;;;;;;;;;4994093;28;20041;-74
2023/04/14 13:58:26;;;;;;;4.22;2.60;;;;;;;;;;4993728;28;20031;-74
2023/04/14 14:00:51;;;;;;;4.68;3.05;;;;;;;;;;4994742;28;20042;-74
2023/04/14 14:03:17;;;;;;;2.95;1.25;;;;;;;;;;4992155;28;20037;-75
2023/04/14 14:05:42;;;;;;;4.85;2.63;;;;;;;;;;4994784;28;20029;-76
2023/04/14 14:08:08;;;;;;;9.55;3.53;;;;;;;;;;4996083;28;20357;-74
2023/04/14 14:10:33;;;;;;;6.85;5.90;;;;;;;;;;5001226;28;20073;-74
2023/04/14 14:12:58;;;;;;;4.63;2.90;;;;;;;;;;4994517;28;20104;-74
2023/04/14 14:15:24;;;;;;;12.45;7.32;;;;;;;;;;5028815;28;20042;-74
2023/04/14 14:17:51;;;;;;;12.38;7.32;;;;;;;;;;4998890;28;20018;-73
2023/04/14 14:20:17;;;;;;;4.60;2.70;;;;;;;;;;4993915;28;20038;-75